sensor_id;sensor_type;location;lat;lon;timestamp;P1;durP1;ratioP1;P2;durP2;ratioP2
79066;SDS011;68470;50.224;14.348;2023-03-19T00:00:16;48.55;;;22.13;;
79066;SDS011;68470;50.224;14.348;2023-03-19T00:03:03;51.13;;;24.45;;
79066;SDS011;68470;50.224;14.348;2023-03-19T00:05:29;55.67;;;24.52;;
79066;SDS011;68470;50.224;14.348;2023-03-19T00:07:55;54.38;;;25.42;;
79066;SDS011;68470;50.224;14.348;2023-03-19T00:10:21;49.03;;;24.70;;
79066;SDS011;68470;50.224;14.348;2023-03-19T00:12:47;42.00;;;19.55;;
79066;SDS011;68470;50.224;14.348;2023-03-19T00:15:13;38.00;;;19.48;;
79066;SDS011;68470;50.224;14.348;2023-03-19T00:17:40;46.47;;;19.33;;
79066;SDS011;68470;50.224;14.348;2023-03-19T00:20:07;45.05;;;21.48;;
79066;SDS011;68470;50.224;14.348;2023-03-19T00:22:35;48.60;;;23.58;;
79066;SDS011;68470;50.224;14.348;2023-03-19T00:25:01;62.88;;;28.52;;
79066;SDS011;68470;50.224;14.348;2023-03-19T00:27:28;58.90;;;27.25;;
79066;SDS011;68470;50.224;14.348;2023-03-19T00:29:53;52.33;;;22.73;;
79066;SDS011;68470;50.224;14.348;2023-03-19T00:32:20;54.17;;;23.25;;
79066;SDS011;68470;50.224;14.348;2023-03-19T00:34:45;51.70;;;22.75;;
79066;SDS011;68470;50.224;14.348;2023-03-19T00:37:12;59.63;;;23.60;;
79066;SDS011;68470;50.224;14.348;2023-03-19T00:39:38;48.22;;;24.50;;
79066;SDS011;68470;50.224;14.348;2023-03-19T00:42:04;47.25;;;21.42;;
79066;SDS011;68470;50.224;14.348;2023-03-19T00:44:30;45.65;;;21.15;;
79066;SDS011;68470;50.224;14.348;2023-03-19T00:46:56;46.05;;;20.55;;
79066;SDS011;68470;50.224;14.348;2023-03-19T00:49:22;42.50;;;20.13;;
79066;SDS011;68470;50.224;14.348;2023-03-19T00:51:48;41.10;;;20.42;;
79066;SDS011;68470;50.224;14.348;2023-03-19T00:54:14;41.35;;;20.38;;
79066;SDS011;68470;50.224;14.348;2023-03-19T00:56:40;42.58;;;22.15;;
79066;SDS011;68470;50.224;14.348;2023-03-19T00:59:05;44.47;;;22.02;;
79066;SDS011;68470;50.224;14.348;2023-03-19T01:01:32;51.22;;;22.23;;
79066;SDS011;68470;50.224;14.348;2023-03-19T01:03:58;48.50;;;21.45;;
79066;SDS011;68470;50.224;14.348;2023-03-19T01:06:25;53.60;;;21.65;;
79066;SDS011;68470;50.224;14.348;2023-03-19T01:08:50;37.90;;;20.55;;
79066;SDS011;68470;50.224;14.348;2023-03-19T01:11:16;44.65;;;21.50;;
79066;SDS011;68470;50.224;14.348;2023-03-19T01:13:43;39.33;;;19.58;;
79066;SDS011;68470;50.224;14.348;2023-03-19T01:16:08;44.00;;;21.10;;
79066;SDS011;68470;50.224;14.348;2023-03-19T01:18:35;41.75;;;19.08;;
79066;SDS011;68470;50.224;14.348;2023-03-19T01:21:00;41.90;;;20.27;;
79066;SDS011;68470;50.224;14.348;2023-03-19T01:23:27;48.67;;;20.92;;
79066;SDS011;68470;50.224;14.348;2023-03-19T01:25:53;39.72;;;21.55;;
79066;SDS011;68470;50.224;14.348;2023-03-19T01:28:19;48.05;;;21.48;;
79066;SDS011;68470;50.224;14.348;2023-03-19T01:30:46;43.85;;;21.35;;
79066;SDS011;68470;50.224;14.348;2023-03-19T01:33:12;42.22;;;20.25;;
79066;SDS011;68470;50.224;14.348;2023-03-19T01:35:38;42.25;;;19.77;;
79066;SDS011;68470;50.224;14.348;2023-03-19T01:38:05;45.47;;;18.38;;
79066;SDS011;68470;50.224;14.348;2023-03-19T01:40:32;39.35;;;20.75;;
79066;SDS011;68470;50.224;14.348;2023-03-19T01:45:50;41.13;;;20.33;;
79066;SDS011;68470;50.224;14.348;2023-03-19T01:50:57;50.97;;;23.13;;
79066;SDS011;68470;50.224;14.348;2023-03-19T01:53:25;42.08;;;19.73;;
79066;SDS011;68470;50.224;14.348;2023-03-19T01:55:56;41.38;;;19.90;;
79066;SDS011;68470;50.224;14.348;2023-03-19T01:58:28;47.13;;;21.52;;
79066;SDS011;68470;50.224;14.348;2023-03-19T02:00:54;43.67;;;19.90;;
79066;SDS011;68470;50.224;14.348;2023-03-19T02:03:22;40.15;;;19.13;;
79066;SDS011;68470;50.224;14.348;2023-03-19T02:05:48;41.70;;;19.92;;
79066;SDS011;68470;50.224;14.348;2023-03-19T02:08:16;44.40;;;20.27;;
79066;SDS011;68470;50.224;14.348;2023-03-19T02:10:45;45.40;;;19.75;;
79066;SDS011;68470;50.224;14.348;2023-03-19T02:13:12;41.90;;;19.17;;
79066;SDS011;68470;50.224;14.348;2023-03-19T02:15:38;38.58;;;19.50;;
79066;SDS011;68470;50.224;14.348;2023-03-19T02:18:05;39.42;;;18.25;;
79066;SDS011;68470;50.224;14.348;2023-03-19T02:28:14;43.67;;;19.10;;
79066;SDS011;68470;50.224;14.348;2023-03-19T02:30:43;39.40;;;18.98;;
79066;SDS011;68470;50.224;14.348;2023-03-19T02:33:11;37.83;;;18.38;;
79066;SDS011;68470;50.224;14.348;2023-03-19T02:35:38;42.65;;;18.50;;
79066;SDS011;68470;50.224;14.348;2023-03-19T02:38:05;44.00;;;18.05;;
79066;SDS011;68470;50.224;14.348;2023-03-19T02:40:38;32.67;;;17.33;;
79066;SDS011;68470;50.224;14.348;2023-03-19T02:43:08;35.67;;;17.23;;
79066;SDS011;68470;50.224;14.348;2023-03-19T02:45:34;38.33;;;17.13;;
79066;SDS011;68470;50.224;14.348;2023-03-19T02:48:00;38.75;;;17.42;;
79066;SDS011;68470;50.224;14.348;2023-03-19T02:50:26;34.33;;;18.65;;
79066;SDS011;68470;50.224;14.348;2023-03-19T02:52:53;37.55;;;17.23;;
79066;SDS011;68470;50.224;14.348;2023-03-19T02:55:19;33.17;;;16.92;;
79066;SDS011;68470;50.224;14.348;2023-03-19T02:57:46;31.30;;;15.55;;
79066;SDS011;68470;50.224;14.348;2023-03-19T03:00:12;31.67;;;16.50;;
79066;SDS011;68470;50.224;14.348;2023-03-19T03:02:38;38.20;;;18.10;;
79066;SDS011;68470;50.224;14.348;2023-03-19T03:05:05;35.13;;;16.98;;
79066;SDS011;68470;50.224;14.348;2023-03-19T03:07:31;34.58;;;16.15;;
79066;SDS011;68470;50.224;14.348;2023-03-19T03:09:57;33.67;;;17.88;;
79066;SDS011;68470;50.224;14.348;2023-03-19T03:12:24;36.17;;;17.17;;
79066;SDS011;68470;50.224;14.348;2023-03-19T03:14:49;35.50;;;17.60;;
79066;SDS011;68470;50.224;14.348;2023-03-19T03:17:16;34.35;;;18.15;;
79066;SDS011;68470;50.224;14.348;2023-03-19T03:19:42;33.28;;;17.55;;
79066;SDS011;68470;50.224;14.348;2023-03-19T03:22:08;33.60;;;17.27;;
79066;SDS011;68470;50.224;14.348;2023-03-19T03:24:34;35.53;;;16.42;;
79066;SDS011;68470;50.224;14.348;2023-03-19T03:27:00;39.67;;;18.58;;
79066;SDS011;68470;50.224;14.348;2023-03-19T03:29:25;40.45;;;18.60;;
79066;SDS011;68470;50.224;14.348;2023-03-19T03:31:51;47.35;;;19.52;;
79066;SDS011;68470;50.224;14.348;2023-03-19T03:34:17;36.85;;;16.98;;
79066;SDS011;68470;50.224;14.348;2023-03-19T03:36:43;42.22;;;19.13;;
79066;SDS011;68470;50.224;14.348;2023-03-19T03:39:11;40.25;;;18.13;;
79066;SDS011;68470;50.224;14.348;2023-03-19T03:41:37;36.05;;;17.20;;
79066;SDS011;68470;50.224;14.348;2023-03-19T03:44:03;38.22;;;17.45;;
79066;SDS011;68470;50.224;14.348;2023-03-19T03:46:29;37.97;;;17.20;;
79066;SDS011;68470;50.224;14.348;2023-03-19T03:48:54;29.77;;;17.25;;
79066;SDS011;68470;50.224;14.348;2023-03-19T03:51:20;40.30;;;18.80;;
79066;SDS011;68470;50.224;14.348;2023-03-19T03:53:46;35.55;;;17.75;;
79066;SDS011;68470;50.224;14.348;2023-03-19T03:56:12;37.10;;;17.75;;
79066;SDS011;68470;50.224;14.348;2023-03-19T03:58:38;35.15;;;16.70;;
79066;SDS011;68470;50.224;14.348;2023-03-19T04:01:05;32.63;;;15.48;;
79066;SDS011;68470;50.224;14.348;2023-03-19T04:03:31;33.60;;;16.35;;
79066;SDS011;68470;50.224;14.348;2023-03-19T04:05:58;33.63;;;15.23;;
79066;SDS011;68470;50.224;14.348;2023-03-19T04:08:24;33.40;;;15.88;;
79066;SDS011;68470;50.224;14.348;2023-03-19T04:10:50;36.72;;;17.67;;
79066;SDS011;68470;50.224;14.348;2023-03-19T04:13:16;34.28;;;16.10;;
79066;SDS011;68470;50.224;14.348;2023-03-19T04:15:42;33.72;;;17.10;;
79066;SDS011;68470;50.224;14.348;2023-03-19T04:18:08;36.20;;;19.30;;
79066;SDS011;68470;50.224;14.348;2023-03-19T04:20:35;36.30;;;18.38;;
79066;SDS011;68470;50.224;14.348;2023-03-19T04:23:01;31.23;;;17.20;;
79066;SDS011;68470;50.224;14.348;2023-03-19T04:25:27;35.53;;;15.82;;
79066;SDS011;68470;50.224;14.348;2023-03-19T04:27:55;34.00;;;15.63;;
79066;SDS011;68470;50.224;14.348;2023-03-19T04:30:22;37.95;;;16.27;;
79066;SDS011;68470;50.224;14.348;2023-03-19T04:32:48;28.73;;;15.70;;
79066;SDS011;68470;50.224;14.348;2023-03-19T04:35:14;32.42;;;16.05;;
79066;SDS011;68470;50.224;14.348;2023-03-19T04:37:40;36.67;;;17.50;;
79066;SDS011;68470;50.224;14.348;2023-03-19T04:40:08;34.03;;;17.33;;
79066;SDS011;68470;50.224;14.348;2023-03-19T04:42:34;37.00;;;16.63;;
79066;SDS011;68470;50.224;14.348;2023-03-19T04:45:00;29.95;;;16.30;;
79066;SDS011;68470;50.224;14.348;2023-03-19T04:47:26;33.38;;;15.02;;
79066;SDS011;68470;50.224;14.348;2023-03-19T04:49:52;41.30;;;19.65;;
79066;SDS011;68470;50.224;14.348;2023-03-19T04:52:18;35.95;;;17.17;;
79066;SDS011;68470;50.224;14.348;2023-03-19T04:54:44;42.22;;;19.25;;
79066;SDS011;68470;50.224;14.348;2023-03-19T04:57:10;40.47;;;19.25;;
79066;SDS011;68470;50.224;14.348;2023-03-19T04:59:36;35.08;;;17.98;;
79066;SDS011;68470;50.224;14.348;2023-03-19T05:02:01;34.38;;;17.95;;
79066;SDS011;68470;50.224;14.348;2023-03-19T05:04:28;37.95;;;18.33;;
79066;SDS011;68470;50.224;14.348;2023-03-19T05:06:54;37.03;;;17.55;;
79066;SDS011;68470;50.224;14.348;2023-03-19T05:09:20;35.25;;;17.83;;
79066;SDS011;68470;50.224;14.348;2023-03-19T05:11:46;42.30;;;20.08;;
79066;SDS011;68470;50.224;14.348;2023-03-19T05:14:12;41.90;;;19.75;;
79066;SDS011;68470;50.224;14.348;2023-03-19T05:16:37;41.78;;;20.42;;
79066;SDS011;68470;50.224;14.348;2023-03-19T05:19:04;38.47;;;17.65;;
79066;SDS011;68470;50.224;14.348;2023-03-19T05:21:30;40.45;;;18.63;;
79066;SDS011;68470;50.224;14.348;2023-03-19T05:23:56;39.90;;;18.55;;
79066;SDS011;68470;50.224;14.348;2023-03-19T05:26:22;45.15;;;20.05;;
79066;SDS011;68470;50.224;14.348;2023-03-19T05:28:48;37.22;;;17.75;;
79066;SDS011;68470;50.224;14.348;2023-03-19T05:31:14;50.72;;;21.38;;
79066;SDS011;68470;50.224;14.348;2023-03-19T05:33:40;49.78;;;21.83;;
79066;SDS011;68470;50.224;14.348;2023-03-19T05:36:06;43.88;;;19.90;;
79066;SDS011;68470;50.224;14.348;2023-03-19T05:38:32;44.05;;;20.95;;
79066;SDS011;68470;50.224;14.348;2023-03-19T05:41:02;44.15;;;20.20;;
79066;SDS011;68470;50.224;14.348;2023-03-19T05:43:29;46.33;;;21.42;;
79066;SDS011;68470;50.224;14.348;2023-03-19T05:45:55;42.95;;;20.92;;
79066;SDS011;68470;50.224;14.348;2023-03-19T05:48:21;44.53;;;21.65;;
79066;SDS011;68470;50.224;14.348;2023-03-19T05:50:47;41.65;;;20.35;;
79066;SDS011;68470;50.224;14.348;2023-03-19T05:53:13;47.60;;;22.48;;
79066;SDS011;68470;50.224;14.348;2023-03-19T05:55:39;42.83;;;19.85;;
79066;SDS011;68470;50.224;14.348;2023-03-19T05:58:05;51.13;;;22.52;;
79066;SDS011;68470;50.224;14.348;2023-03-19T06:00:32;42.78;;;20.50;;
79066;SDS011;68470;50.224;14.348;2023-03-19T06:02:58;42.67;;;21.35;;
79066;SDS011;68470;50.224;14.348;2023-03-19T06:05:24;42.17;;;20.83;;
79066;SDS011;68470;50.224;14.348;2023-03-19T06:07:50;40.33;;;19.75;;
79066;SDS011;68470;50.224;14.348;2023-03-19T06:10:16;45.15;;;21.58;;
79066;SDS011;68470;50.224;14.348;2023-03-19T06:12:42;41.45;;;19.90;;
79066;SDS011;68470;50.224;14.348;2023-03-19T06:15:08;46.45;;;21.88;;
79066;SDS011;68470;50.224;14.348;2023-03-19T06:17:35;35.20;;;18.10;;
79066;SDS011;68470;50.224;14.348;2023-03-19T06:20:00;41.55;;;19.45;;
79066;SDS011;68470;50.224;14.348;2023-03-19T06:22:26;41.67;;;19.45;;
79066;SDS011;68470;50.224;14.348;2023-03-19T06:24:52;39.17;;;20.83;;
79066;SDS011;68470;50.224;14.348;2023-03-19T06:27:18;37.40;;;18.10;;
79066;SDS011;68470;50.224;14.348;2023-03-19T06:29:44;34.00;;;17.45;;
79066;SDS011;68470;50.224;14.348;2023-03-19T06:32:11;38.03;;;18.45;;
79066;SDS011;68470;50.224;14.348;2023-03-19T06:34:37;41.35;;;21.05;;
79066;SDS011;68470;50.224;14.348;2023-03-19T06:37:06;37.28;;;19.27;;
79066;SDS011;68470;50.224;14.348;2023-03-19T06:39:32;35.40;;;19.40;;
79066;SDS011;68470;50.224;14.348;2023-03-19T06:41:59;34.67;;;18.85;;
79066;SDS011;68470;50.224;14.348;2023-03-19T06:44:25;38.65;;;21.80;;
79066;SDS011;68470;50.224;14.348;2023-03-19T06:46:51;44.40;;;20.98;;
79066;SDS011;68470;50.224;14.348;2023-03-19T06:49:17;39.95;;;20.52;;
79066;SDS011;68470;50.224;14.348;2023-03-19T06:51:43;39.97;;;18.33;;
79066;SDS011;68470;50.224;14.348;2023-03-19T06:54:09;41.75;;;22.27;;
79066;SDS011;68470;50.224;14.348;2023-03-19T06:56:35;40.42;;;21.08;;
79066;SDS011;68470;50.224;14.348;2023-03-19T06:59:01;40.80;;;20.27;;
79066;SDS011;68470;50.224;14.348;2023-03-19T07:01:27;34.58;;;18.92;;
79066;SDS011;68470;50.224;14.348;2023-03-19T07:03:53;34.42;;;18.55;;
79066;SDS011;68470;50.224;14.348;2023-03-19T07:06:20;33.70;;;18.67;;
79066;SDS011;68470;50.224;14.348;2023-03-19T07:08:46;34.97;;;17.17;;
79066;SDS011;68470;50.224;14.348;2023-03-19T07:11:12;33.15;;;17.85;;
79066;SDS011;68470;50.224;14.348;2023-03-19T07:13:38;39.00;;;17.90;;
79066;SDS011;68470;50.224;14.348;2023-03-19T07:16:05;35.78;;;17.65;;
79066;SDS011;68470;50.224;14.348;2023-03-19T07:18:31;36.00;;;17.40;;
79066;SDS011;68470;50.224;14.348;2023-03-19T07:20:57;32.78;;;16.92;;
79066;SDS011;68470;50.224;14.348;2023-03-19T07:23:23;37.08;;;17.02;;
79066;SDS011;68470;50.224;14.348;2023-03-19T07:25:49;29.67;;;16.00;;
79066;SDS011;68470;50.224;14.348;2023-03-19T07:28:14;35.05;;;18.15;;
79066;SDS011;68470;50.224;14.348;2023-03-19T07:30:41;32.60;;;17.83;;
79066;SDS011;68470;50.224;14.348;2023-03-19T07:33:06;37.15;;;17.42;;
79066;SDS011;68470;50.224;14.348;2023-03-19T07:35:33;31.83;;;17.30;;
79066;SDS011;68470;50.224;14.348;2023-03-19T07:37:59;30.77;;;16.13;;
79066;SDS011;68470;50.224;14.348;2023-03-19T07:40:25;42.38;;;20.38;;
79066;SDS011;68470;50.224;14.348;2023-03-19T07:42:51;37.70;;;19.05;;
79066;SDS011;68470;50.224;14.348;2023-03-19T07:45:17;31.80;;;17.70;;
79066;SDS011;68470;50.224;14.348;2023-03-19T07:47:43;33.75;;;16.77;;
79066;SDS011;68470;50.224;14.348;2023-03-19T07:50:09;33.28;;;17.58;;
79066;SDS011;68470;50.224;14.348;2023-03-19T07:52:35;27.23;;;14.93;;
79066;SDS011;68470;50.224;14.348;2023-03-19T07:55:01;28.65;;;15.88;;
79066;SDS011;68470;50.224;14.348;2023-03-19T07:57:28;24.95;;;14.38;;
79066;SDS011;68470;50.224;14.348;2023-03-19T07:59:54;23.73;;;13.63;;
79066;SDS011;68470;50.224;14.348;2023-03-19T08:02:19;30.63;;;15.65;;
79066;SDS011;68470;50.224;14.348;2023-03-19T08:04:45;25.83;;;14.43;;
79066;SDS011;68470;50.224;14.348;2023-03-19T08:07:11;36.28;;;17.40;;
79066;SDS011;68470;50.224;14.348;2023-03-19T08:09:38;30.95;;;15.82;;
79066;SDS011;68470;50.224;14.348;2023-03-19T08:12:05;25.63;;;14.48;;
79066;SDS011;68470;50.224;14.348;2023-03-19T08:14:32;26.95;;;14.18;;
79066;SDS011;68470;50.224;14.348;2023-03-19T08:16:58;24.23;;;14.02;;
79066;SDS011;68470;50.224;14.348;2023-03-19T08:19:24;25.05;;;14.18;;
79066;SDS011;68470;50.224;14.348;2023-03-19T08:21:50;26.00;;;14.23;;
79066;SDS011;68470;50.224;14.348;2023-03-19T08:24:16;24.15;;;14.00;;
79066;SDS011;68470;50.224;14.348;2023-03-19T08:26:43;22.77;;;13.98;;
79066;SDS011;68470;50.224;14.348;2023-03-19T08:29:09;25.83;;;14.02;;
79066;SDS011;68470;50.224;14.348;2023-03-19T08:31:35;23.70;;;13.57;;
79066;SDS011;68470;50.224;14.348;2023-03-19T08:34:01;24.80;;;13.55;;
79066;SDS011;68470;50.224;14.348;2023-03-19T08:36:30;27.25;;;14.45;;
79066;SDS011;68470;50.224;14.348;2023-03-19T08:38:56;32.10;;;17.38;;
79066;SDS011;68470;50.224;14.348;2023-03-19T08:41:23;28.58;;;16.13;;
79066;SDS011;68470;50.224;14.348;2023-03-19T08:43:49;29.45;;;15.57;;
79066;SDS011;68470;50.224;14.348;2023-03-19T08:46:16;22.65;;;15.10;;
79066;SDS011;68470;50.224;14.348;2023-03-19T08:48:42;25.92;;;15.43;;
79066;SDS011;68470;50.224;14.348;2023-03-19T08:51:08;24.77;;;14.70;;
79066;SDS011;68470;50.224;14.348;2023-03-19T08:53:35;24.13;;;14.52;;
79066;SDS011;68470;50.224;14.348;2023-03-19T08:56:02;23.58;;;13.85;;
79066;SDS011;68470;50.224;14.348;2023-03-19T08:58:30;25.08;;;14.25;;
79066;SDS011;68470;50.224;14.348;2023-03-19T09:01:03;26.55;;;14.63;;
79066;SDS011;68470;50.224;14.348;2023-03-19T09:03:35;29.55;;;16.35;;
79066;SDS011;68470;50.224;14.348;2023-03-19T09:06:02;27.90;;;17.38;;
79066;SDS011;68470;50.224;14.348;2023-03-19T09:08:30;24.80;;;16.35;;
79066;SDS011;68470;50.224;14.348;2023-03-19T09:10:57;25.05;;;14.98;;
79066;SDS011;68470;50.224;14.348;2023-03-19T09:13:23;25.15;;;15.35;;
79066;SDS011;68470;50.224;14.348;2023-03-19T09:15:50;25.45;;;15.40;;
79066;SDS011;68470;50.224;14.348;2023-03-19T09:18:16;25.85;;;14.70;;
79066;SDS011;68470;50.224;14.348;2023-03-19T09:20:44;25.65;;;15.07;;
79066;SDS011;68470;50.224;14.348;2023-03-19T09:23:11;22.67;;;14.73;;
79066;SDS011;68470;50.224;14.348;2023-03-19T09:25:37;24.35;;;14.25;;
79066;SDS011;68470;50.224;14.348;2023-03-19T09:28:03;23.52;;;14.40;;
79066;SDS011;68470;50.224;14.348;2023-03-19T09:30:29;24.25;;;15.77;;
79066;SDS011;68470;50.224;14.348;2023-03-19T09:32:56;26.10;;;15.95;;
79066;SDS011;68470;50.224;14.348;2023-03-19T09:35:21;21.15;;;14.43;;
79066;SDS011;68470;50.224;14.348;2023-03-19T09:37:48;24.02;;;14.68;;
79066;SDS011;68470;50.224;14.348;2023-03-19T09:40:27;25.80;;;14.88;;
79066;SDS011;68470;50.224;14.348;2023-03-19T09:45:26;23.45;;;14.90;;
79066;SDS011;68470;50.224;14.348;2023-03-19T09:47:55;23.35;;;15.40;;
79066;SDS011;68470;50.224;14.348;2023-03-19T09:50:28;25.02;;;15.07;;
79066;SDS011;68470;50.224;14.348;2023-03-19T09:53:19;24.80;;;16.08;;
79066;SDS011;68470;50.224;14.348;2023-03-19T09:56:06;24.73;;;15.73;;
79066;SDS011;68470;50.224;14.348;2023-03-19T09:58:35;25.58;;;16.55;;
79066;SDS011;68470;50.224;14.348;2023-03-19T10:01:02;22.80;;;15.32;;
79066;SDS011;68470;50.224;14.348;2023-03-19T10:14:18;24.58;;;15.07;;
79066;SDS011;68470;50.224;14.348;2023-03-19T10:16:53;27.05;;;16.25;;
79066;SDS011;68470;50.224;14.348;2023-03-19T10:19:23;25.52;;;15.43;;
79066;SDS011;68470;50.224;14.348;2023-03-19T10:22:04;25.58;;;17.45;;
79066;SDS011;68470;50.224;14.348;2023-03-19T10:24:37;23.17;;;14.60;;
79066;SDS011;68470;50.224;14.348;2023-03-19T10:27:17;25.92;;;13.65;;
79066;SDS011;68470;50.224;14.348;2023-03-19T10:29:45;26.20;;;15.35;;
79066;SDS011;68470;50.224;14.348;2023-03-19T10:32:24;22.20;;;14.40;;
79066;SDS011;68470;50.224;14.348;2023-03-19T10:34:59;24.48;;;14.88;;
79066;SDS011;68470;50.224;14.348;2023-03-19T10:37:32;24.55;;;14.40;;
79066;SDS011;68470;50.224;14.348;2023-03-19T10:40:00;22.17;;;14.02;;
79066;SDS011;68470;50.224;14.348;2023-03-19T10:47:50;25.58;;;14.85;;
79066;SDS011;68470;50.224;14.348;2023-03-19T10:50:18;23.00;;;14.63;;
79066;SDS011;68470;50.224;14.348;2023-03-19T10:52:51;25.95;;;15.00;;
79066;SDS011;68470;50.224;14.348;2023-03-19T10:55:28;26.15;;;14.23;;
79066;SDS011;68470;50.224;14.348;2023-03-19T10:58:01;25.05;;;14.73;;
79066;SDS011;68470;50.224;14.348;2023-03-19T11:00:30;25.33;;;14.85;;
79066;SDS011;68470;50.224;14.348;2023-03-19T11:02:58;27.90;;;14.70;;
79066;SDS011;68470;50.224;14.348;2023-03-19T11:07:57;28.45;;;15.38;;
79066;SDS011;68470;50.224;14.348;2023-03-19T11:10:30;27.75;;;15.93;;
79066;SDS011;68470;50.224;14.348;2023-03-19T11:12:59;23.63;;;14.55;;
79066;SDS011;68470;50.224;14.348;2023-03-19T11:15:32;20.85;;;12.65;;
79066;SDS011;68470;50.224;14.348;2023-03-19T11:18:04;22.02;;;13.52;;
79066;SDS011;68470;50.224;14.348;2023-03-19T11:20:47;23.05;;;14.23;;
79066;SDS011;68470;50.224;14.348;2023-03-19T11:23:30;21.65;;;14.30;;
79066;SDS011;68470;50.224;14.348;2023-03-19T11:26:04;24.15;;;15.20;;
79066;SDS011;68470;50.224;14.348;2023-03-19T11:28:31;21.42;;;13.88;;
79066;SDS011;68470;50.224;14.348;2023-03-19T11:36:51;21.17;;;12.70;;
79066;SDS011;68470;50.224;14.348;2023-03-19T11:39:36;26.55;;;14.85;;
79066;SDS011;68470;50.224;14.348;2023-03-19T11:42:29;22.38;;;15.18;;
79066;SDS011;68470;50.224;14.348;2023-03-19T11:48:13;22.65;;;13.75;;
79066;SDS011;68470;50.224;14.348;2023-03-19T11:51:04;21.42;;;14.75;;
79066;SDS011;68470;50.224;14.348;2023-03-19T11:53:47;21.90;;;14.40;;
79066;SDS011;68470;50.224;14.348;2023-03-19T11:56:26;20.60;;;13.25;;
79066;SDS011;68470;50.224;14.348;2023-03-19T12:01:41;26.95;;;15.05;;
79066;SDS011;68470;50.224;14.348;2023-03-19T12:12:35;25.23;;;13.95;;
79066;SDS011;68470;50.224;14.348;2023-03-19T12:35:05;25.70;;;14.38;;
79066;SDS011;68470;50.224;14.348;2023-03-19T12:40:39;25.30;;;13.75;;
79066;SDS011;68470;50.224;14.348;2023-03-19T12:43:17;23.23;;;13.63;;
79066;SDS011;68470;50.224;14.348;2023-03-19T12:45:49;19.75;;;12.43;;
79066;SDS011;68470;50.224;14.348;2023-03-19T12:48:23;29.48;;;14.63;;
79066;SDS011;68470;50.224;14.348;2023-03-19T12:50:55;24.13;;;14.57;;
79066;SDS011;68470;50.224;14.348;2023-03-19T12:53:30;26.02;;;13.82;;
79066;SDS011;68470;50.224;14.348;2023-03-19T12:56:00;24.52;;;13.43;;
79066;SDS011;68470;50.224;14.348;2023-03-19T12:58:36;24.52;;;14.15;;
79066;SDS011;68470;50.224;14.348;2023-03-19T13:01:32;24.95;;;14.50;;
79066;SDS011;68470;50.224;14.348;2023-03-19T13:07:00;24.73;;;13.93;;
79066;SDS011;68470;50.224;14.348;2023-03-19T13:09:43;25.23;;;13.90;;
79066;SDS011;68470;50.224;14.348;2023-03-19T13:12:16;21.63;;;13.70;;
79066;SDS011;68470;50.224;14.348;2023-03-19T13:14:58;22.60;;;14.57;;
79066;SDS011;68470;50.224;14.348;2023-03-19T13:20:25;23.88;;;14.02;;
79066;SDS011;68470;50.224;14.348;2023-03-19T13:22:56;29.08;;;14.80;;
79066;SDS011;68470;50.224;14.348;2023-03-19T13:25:30;27.90;;;15.77;;
79066;SDS011;68470;50.224;14.348;2023-03-19T13:28:00;26.00;;;16.55;;
79066;SDS011;68470;50.224;14.348;2023-03-19T13:30:26;25.50;;;15.93;;
79066;SDS011;68470;50.224;14.348;2023-03-19T13:33:01;32.95;;;18.67;;
79066;SDS011;68470;50.224;14.348;2023-03-19T13:35:44;34.70;;;19.35;;
79066;SDS011;68470;50.224;14.348;2023-03-19T13:41:03;38.40;;;20.48;;
79066;SDS011;68470;50.224;14.348;2023-03-19T13:46:25;37.33;;;19.52;;
79066;SDS011;68470;50.224;14.348;2023-03-19T13:49:00;32.95;;;20.92;;
79066;SDS011;68470;50.224;14.348;2023-03-19T13:51:29;40.20;;;21.80;;
79066;SDS011;68470;50.224;14.348;2023-03-19T13:59:33;31.42;;;17.17;;
79066;SDS011;68470;50.224;14.348;2023-03-19T14:07:27;27.10;;;16.67;;
79066;SDS011;68470;50.224;14.348;2023-03-19T14:12:30;27.92;;;15.63;;
79066;SDS011;68470;50.224;14.348;2023-03-19T14:14:58;28.92;;;16.40;;
79066;SDS011;68470;50.224;14.348;2023-03-19T14:17:43;29.17;;;17.65;;
79066;SDS011;68470;50.224;14.348;2023-03-19T14:22:39;30.27;;;17.58;;
79066;SDS011;68470;50.224;14.348;2023-03-19T14:25:18;28.15;;;18.08;;
79066;SDS011;68470;50.224;14.348;2023-03-19T14:30:18;40.60;;;19.17;;
79066;SDS011;68470;50.224;14.348;2023-03-19T14:33:11;31.42;;;17.50;;
79066;SDS011;68470;50.224;14.348;2023-03-19T14:35:43;38.08;;;20.95;;
79066;SDS011;68470;50.224;14.348;2023-03-19T14:41:04;28.65;;;17.92;;
79066;SDS011;68470;50.224;14.348;2023-03-19T14:46:03;31.23;;;16.98;;
79066;SDS011;68470;50.224;14.348;2023-03-19T14:54:03;32.30;;;19.30;;
79066;SDS011;68470;50.224;14.348;2023-03-19T14:56:39;28.10;;;17.20;;
79066;SDS011;68470;50.224;14.348;2023-03-19T14:59:08;32.28;;;18.38;;
79066;SDS011;68470;50.224;14.348;2023-03-19T15:01:38;35.35;;;18.00;;
79066;SDS011;68470;50.224;14.348;2023-03-19T15:04:12;42.67;;;22.50;;
79066;SDS011;68470;50.224;14.348;2023-03-19T15:06:41;37.70;;;20.80;;
79066;SDS011;68470;50.224;14.348;2023-03-19T15:09:19;29.60;;;16.92;;
79066;SDS011;68470;50.224;14.348;2023-03-19T15:12:00;26.77;;;15.60;;
79066;SDS011;68470;50.224;14.348;2023-03-19T15:17:40;44.97;;;23.52;;
79066;SDS011;68470;50.224;14.348;2023-03-19T15:20:20;43.88;;;22.85;;
79066;SDS011;68470;50.224;14.348;2023-03-19T15:22:58;74.30;;;30.60;;
79066;SDS011;68470;50.224;14.348;2023-03-19T15:25:26;47.75;;;22.48;;
79066;SDS011;68470;50.224;14.348;2023-03-19T15:28:09;37.35;;;21.48;;
79066;SDS011;68470;50.224;14.348;2023-03-19T15:30:37;33.00;;;20.08;;
79066;SDS011;68470;50.224;14.348;2023-03-19T15:33:15;34.95;;;20.80;;
79066;SDS011;68470;50.224;14.348;2023-03-19T15:35:43;38.05;;;19.38;;
79066;SDS011;68470;50.224;14.348;2023-03-19T15:38:09;57.92;;;27.10;;
79066;SDS011;68470;50.224;14.348;2023-03-19T15:40:39;79.78;;;35.22;;
79066;SDS011;68470;50.224;14.348;2023-03-19T15:43:08;114.63;;;43.85;;
79066;SDS011;68470;50.224;14.348;2023-03-19T15:45:37;186.85;;;61.30;;
79066;SDS011;68470;50.224;14.348;2023-03-19T15:48:07;90.78;;;35.72;;
79066;SDS011;68470;50.224;14.348;2023-03-19T15:50:46;38.65;;;19.70;;
79066;SDS011;68470;50.224;14.348;2023-03-19T15:53:16;33.00;;;17.00;;
79066;SDS011;68470;50.224;14.348;2023-03-19T15:55:47;31.35;;;17.25;;
79066;SDS011;68470;50.224;14.348;2023-03-19T15:58:17;27.25;;;16.60;;
79066;SDS011;68470;50.224;14.348;2023-03-19T16:00:47;31.02;;;16.85;;
79066;SDS011;68470;50.224;14.348;2023-03-19T16:03:16;29.05;;;15.85;;
79066;SDS011;68470;50.224;14.348;2023-03-19T16:05:54;31.63;;;16.20;;
79066;SDS011;68470;50.224;14.348;2023-03-19T16:08:25;30.27;;;15.75;;
79066;SDS011;68470;50.224;14.348;2023-03-19T16:10:52;27.40;;;15.75;;
79066;SDS011;68470;50.224;14.348;2023-03-19T16:15:52;29.55;;;17.10;;
79066;SDS011;68470;50.224;14.348;2023-03-19T16:18:22;30.27;;;16.88;;
79066;SDS011;68470;50.224;14.348;2023-03-19T16:23:32;24.13;;;14.40;;